Time;durP1;ratioP1;P1;durP2;ratioP2;P2;SDS_P1;SDS_P2;PMS_P1;PMS_P2;Temp;Humidity;BMP_temperature;BMP_pressure;BME280_temperature;BME280_humidity;BME280_pressure;Samples;Min_cycle;Max_cycle;Signal;HPM_P1;HPM_P2
2021/10/29 00:05:19;;;;;;;47.37;43.80;;;;;;;15.41;100.00;100143.56;1941297;74;33580;-69
2021/10/29 00:10:44;;;;;;;46.70;43.20;;;;;;;15.36;100.00;100135.37;1941081;74;33006;-67
2021/10/29 00:16:09;;;;;;;47.83;44.53;;;;;;;15.31;100.00;100131.36;1941047;74;33006;-67
2021/10/29 00:21:33;;;;;;;48.00;44.70;;;;;;;15.32;100.00;100118.41;1941304;74;33497;-67
2021/10/29 00:26:58;;;;;;;46.27;43.00;;;;;;;15.33;100.00;100106.64;1941337;74;33871;-67
2021/10/29 00:32:23;;;;;;;45.47;42.37;;;;;;;15.31;100.00;100100.58;1941145;74;33105;-67
2021/10/29 00:37:47;;;;;;;47.20;43.97;;;;;;;15.29;100.00;100105.67;1941276;74;33535;-67
2021/10/29 00:43:13;;;;;;;48.07;44.80;;;;;;;15.33;100.00;100090.68;1941300;74;33514;-69
2021/10/29 00:48:38;;;;;;;45.53;42.47;;;;;;;15.41;100.00;100081.42;1941281;74;33515;-67
2021/10/29 00:54:02;;;;;;;46.37;43.17;;;;;;;15.33;100.00;100065.50;1941269;74;33091;-71
2021/10/29 00:59:26;;;;;;;44.13;41.23;;;;;;;15.44;100.00;100059.78;1941071;74;33005;-67
2021/10/29 01:04:51;;;;;;;44.80;41.70;;;;;;;15.44;100.00;100057.56;1941262;74;33612;-67
2021/10/29 01:10:17;;;;;;;45.33;42.17;;;;;;;15.46;100.00;100045.44;1941370;74;33553;-67
2021/10/29 01:15:41;;;;;;;46.07;42.53;;;;;;;15.51;100.00;100047.25;1941172;74;33012;-68
2021/10/29 01:21:07;;;;;;;43.03;40.23;;;;;;;15.47;100.00;100038.11;1941091;74;33169;-69
2021/10/29 01:26:33;;;;;;;43.03;40.17;;;;;;;15.49;100.00;100038.58;1941317;74;33587;-67
2021/10/29 01:31:58;;;;;;;43.47;40.57;;;;;;;15.51;100.00;100040.25;1941272;74;33605;-67
2021/10/29 01:37:22;;;;;;;48.13;44.67;;;;;;;15.48;100.00;100038.36;1941077;74;33015;-67
2021/10/29 01:42:51;;;;;;;49.37;46.07;;;;;;;15.28;100.00;100032.11;1941298;74;33508;-67
2021/10/29 01:48:17;;;;;;;48.30;44.67;;;;;;;15.23;100.00;100041.28;1941113;74;33093;-69
2021/10/29 01:53:42;;;;;;;49.03;45.50;;;;;;;15.19;100.00;100038.31;1941251;74;33527;-67
2021/10/29 01:59:10;;;;;;;44.40;41.20;;;;;;;15.23;100.00;100044.08;1941277;74;33529;-69
2021/10/29 02:04:34;;;;;;;45.77;42.47;;;;;;;15.26;100.00;100031.64;1941080;74;33006;-67
2021/10/29 02:09:59;;;;;;;45.00;41.77;;;;;;;15.24;100.00;100023.32;1941268;74;33685;-67
2021/10/29 02:15:24;;;;;;;47.27;43.73;;;;;;;15.30;100.00;100027.58;1941299;74;33630;-69
2021/10/29 02:20:48;;;;;;;44.87;41.77;;;;;;;15.38;100.00;100016.92;1941300;74;32988;-68
2021/10/29 02:26:13;;;;;;;46.10;42.60;;;;;;;15.27;100.00;99994.69;1941323;74;33512;-69
2021/10/29 02:31:39;;;;;;;48.37;44.90;;;;;;;15.15;100.00;99991.19;1941274;74;33153;-69
2021/10/29 02:37:04;;;;;;;47.77;44.27;;;;;;;15.20;100.00;99982.61;1941284;74;33551;-68
2021/10/29 02:42:29;;;;;;;47.53;43.67;;;;;;;15.22;100.00;99973.89;1941084;74;33051;-67
2021/10/29 02:47:54;;;;;;;45.50;42.20;;;;;;;15.24;100.00;99961.77;1941054;74;33001;-66
2021/10/29 02:53:18;;;;;;;46.37;42.93;;;;;;;15.22;100.00;99942.55;1941221;74;33194;-69
2021/10/29 02:58:43;;;;;;;47.50;43.93;;;;;;;15.24;100.00;99929.59;1941246;74;33487;-68
2021/10/29 03:04:07;;;;;;;47.50;43.73;;;;;;;15.20;100.00;99938.42;1941140;74;33031;-69
2021/10/29 03:09:32;;;;;;;44.70;41.20;;;;;;;15.25;100.00;99932.06;1941294;74;33134;-67
2021/10/29 03:14:56;;;;;;;46.20;42.60;;;;;;;15.27;100.00;99920.55;1941312;74;33012;-67
2021/10/29 03:20:21;;;;;;;46.73;43.40;;;;;;;15.30;100.00;99908.67;1941090;74;33004;-69
2021/10/29 03:25:46;;;;;;;47.53;44.17;;;;;;;15.24;100.00;99908.04;1941093;74;33077;-69
2021/10/29 03:31:10;;;;;;;47.93;44.33;;;;;;;15.15;100.00;99900.85;1941298;74;33134;-69
2021/10/29 03:36:36;;;;;;;45.17;41.97;;;;;;;15.16;100.00;99903.33;1941295;74;33491;-67
2021/10/29 03:42:05;;;;;;;47.53;44.20;;;;;;;15.26;100.00;99897.92;1941020;74;33103;-67
2021/10/29 03:47:29;;;;;;;44.93;41.53;;;;;;;15.30;100.00;99898.30;1941207;74;33511;-67
2021/10/29 03:52:58;;;;;;;44.70;41.33;;;;;;;15.36;100.00;99910.91;1941092;74;32987;-69
2021/10/29 03:58:22;;;;;;;43.00;39.90;;;;;;;15.38;100.00;99900.22;1941019;74;33002;-67
2021/10/29 04:03:47;;;;;;;44.17;41.17;;;;;;;15.31;100.00;99892.95;1941150;74;33007;-67
2021/10/29 04:09:12;;;;;;;44.90;41.70;;;;;;;15.24;100.00;99896.84;1941043;74;33098;-67
2021/10/29 04:14:42;;;;;;;44.70;41.50;;;;;;;15.27;100.00;99892.00;1941081;74;33011;-67
2021/10/29 04:20:07;;;;;;;46.90;43.37;;;;;;;15.14;100.00;99883.28;1940990;74;33016;-69
2021/10/29 04:25:32;;;;;;;50.03;46.13;;;;;;;14.91;100.00;99874.36;1941026;74;33044;-68
2021/10/29 04:31:00;;;;;;;48.83;45.17;;;;;;;14.80;100.00;99869.50;1941320;74;33015;-68
2021/10/29 04:36:24;;;;;;;47.13;43.47;;;;;;;14.73;100.00;99865.00;1941079;74;32989;-69
2021/10/29 04:41:50;;;;;;;49.80;46.00;;;;;;;14.65;100.00;99858.88;1941321;74;33668;-69
2021/10/29 04:47:15;;;;;;;50.77;47.13;;;;;;;14.56;100.00;99867.30;1941151;74;32994;-67
2021/10/29 04:52:39;;;;;;;49.13;45.63;;;;;;;14.42;100.00;99866.13;1941284;74;33060;-69
2021/10/29 04:58:07;;;;;;;48.90;45.30;;;;;;;14.45;100.00;99868.84;1941119;74;33075;-69
2021/10/29 05:03:32;;;;;;;50.50;46.77;;;;;;;14.40;100.00;99854.48;1941245;74;33058;-67
2021/10/29 05:08:56;;;;;;;49.60;45.90;;;;;;;14.34;100.00;99857.73;1941181;74;33057;-67
2021/10/29 05:14:20;;;;;;;49.23;45.47;;;;;;;14.31;100.00;99852.83;1941090;74;33201;-67
2021/10/29 05:19:45;;;;;;;53.87;49.80;;;;;;;14.32;100.00;99846.09;1941157;74;32991;-67
2021/10/29 05:25:11;;;;;;;50.23;46.17;;;;;;;14.30;100.00;99845.02;1941146;74;32987;-68
2021/10/29 05:30:36;;;;;;;51.13;46.70;;;;;;;14.31;100.00;99829.09;1941114;74;33001;-69
2021/10/29 05:36:00;;;;;;;52.37;48.03;;;;;;;14.30;100.00;99822.68;1941080;74;33096;-69
2021/10/29 05:41:24;;;;;;;49.87;45.60;;;;;;;14.29;100.00;99809.86;1941171;74;33549;-67
2021/10/29 05:46:49;;;;;;;48.70;44.73;;;;;;;14.29;100.00;99809.06;1941267;74;33575;-69
2021/10/29 05:52:17;;;;;;;48.37;44.57;;;;;;;14.30;100.00;99793.34;1941104;74;32987;-73
2021/10/29 05:57:42;;;;;;;49.43;45.63;;;;;;;14.36;100.00;99810.78;1941324;74;33650;-66
2021/10/29 06:03:10;;;;;;;51.23;47.33;;;;;;;14.31;100.00;99794.17;1941337;74;32985;-70
2021/10/29 06:08:34;;;;;;;51.77;48.07;;;;;;;14.29;100.00;99776.34;1941302;74;33496;-69
2021/10/29 06:13:59;;;;;;;49.27;45.60;;;;;;;14.31;100.00;99769.03;1941270;74;33059;-67
2021/10/29 06:19:23;;;;;;;50.40;46.77;;;;;;;14.39;100.00;99780.77;1941280;74;33543;-68
2021/10/29 06:24:49;;;;;;;49.23;45.63;;;;;;;14.24;100.00;99768.17;1941072;74;33134;-70
2021/10/29 06:30:13;;;;;;;48.53;44.90;;;;;;;14.14;100.00;99743.41;1941039;74;33022;-69
2021/10/29 06:35:39;;;;;;;48.37;44.87;;;;;;;14.12;100.00;99776.42;1941067;74;33095;-72
2021/10/29 06:41:05;;;;;;;49.13;45.60;;;;;;;14.11;100.00;99777.02;1941300;74;33509;-69
2021/10/29 06:46:36;;;;;;;48.77;45.17;;;;;;;14.09;100.00;99751.96;1941278;74;33488;-72
2021/10/29 06:52:15;;;;;;;45.97;42.47;;;;;;;14.03;100.00;99766.67;1941295;74;33610;-70
2021/10/29 07:03:40;;;;;;;46.80;43.33;;;;;;;14.03;100.00;99744.34;1941264;74;33484;-68
2021/10/29 07:43:08;;;;;;;48.23;44.73;;;;;;;14.22;100.00;99709.03;1941222;74;33529;-68
2021/10/29 07:48:50;;;;;;;48.27;44.80;;;;;;;14.33;100.00;99714.48;2009872;71;32813;-68
2021/10/29 07:54:14;;;;;;;47.57;43.67;;;;;;;14.30;100.00;99717.93;1941334;74;33495;-69
2021/10/29 07:59:38;;;;;;;45.90;42.40;;;;;;;14.24;100.00;99712.31;1941173;74;33493;-68
2021/10/29 08:05:10;;;;;;;46.40;42.77;;;;;;;14.25;100.00;99732.08;1941127;74;33146;-67
2021/10/29 08:10:35;;;;;;;46.57;42.73;;;;;;;14.28;100.00;99723.62;1941073;74;32989;-67
2021/10/29 08:16:04;;;;;;;48.80;44.87;;;;;;;14.43;100.00;99712.70;1941158;74;33077;-66
2021/10/29 08:21:26;;;;;;;46.67;42.97;;;;;;;14.50;100.00;99721.36;1941086;74;33016;-67
2021/10/29 08:26:51;;;;;;;46.63;42.97;;;;;;;14.65;100.00;99724.73;1941062;74;33112;-69
2021/10/29 08:32:16;;;;;;;47.33;43.53;;;;;;;14.75;100.00;99713.16;1941351;74;33560;-68
2021/10/29 08:37:41;;;;;;;49.47;45.33;;;;;;;14.73;100.00;99718.25;1941063;74;33187;-71
2021/10/29 08:43:07;;;;;;;48.17;44.17;;;;;;;14.87;100.00;99730.81;1941225;74;33129;-69
2021/10/29 08:48:35;;;;;;;47.00;42.97;;;;;;;14.97;100.00;99710.80;1941049;74;33070;-69
2021/10/29 08:53:59;;;;;;;45.73;41.83;;;;;;;15.11;100.00;99706.33;1941189;74;33077;-69
2021/10/29 08:59:29;;;;;;;45.40;41.40;;;;;;;15.09;100.00;99704.47;1941164;74;33087;-68
2021/10/29 09:04:57;;;;;;;46.27;42.07;;;;;;;15.15;100.00;99715.67;1941342;74;33496;-67
2021/10/29 09:10:42;;;;;;;44.17;40.30;;;;;;;15.25;100.00;99709.66;1941106;74;33008;-68
2021/10/29 09:33:13;;;;;;;42.67;39.40;;;;;;;15.40;100.00;99677.43;1941172;74;33128;-68
2021/10/29 09:38:38;;;;;;;45.17;41.97;;;;;;;15.34;100.00;99674.02;1941089;74;33062;-68
2021/10/29 09:44:04;;;;;;;48.30;44.20;;;;;;;15.14;100.00;99690.86;1941310;74;32991;-67
2021/10/29 09:49:36;;;;;;;42.93;39.43;;;;;;;14.75;100.00;99695.80;1941296;74;33586;-68
2021/10/29 09:55:14;;;;;;;44.73;40.93;;;;;;;14.65;100.00;99698.17;1941377;74;33096;-68
2021/10/29 10:00:36;;;;;;;42.87;39.03;;;;;;;14.69;100.00;99705.54;1941320;74;33512;-67
2021/10/29 10:06:03;;;;;;;47.70;43.80;;;;;;;15.00;100.00;99685.55;1941375;74;33577;-68
2021/10/29 10:11:31;;;;;;;42.47;38.77;;;;;;;15.13;100.00;99697.03;1941404;74;33639;-68
2021/10/29 10:16:57;;;;;;;40.13;36.93;;;;;;;15.37;100.00;99685.09;1941313;74;33696;-67
2021/10/29 10:22:25;;;;;;;42.10;38.17;;;;;;;15.65;100.00;99673.55;1941097;74;33024;-67
2021/10/29 10:45:38;;;;;;;43.53;40.23;;;;;;;15.52;100.00;99659.87;1941284;74;33577;-67
2021/10/29 10:51:53;;;;;;;42.67;39.07;;;;;;;15.64;100.00;99652.88;1941337;74;33460;-67
2021/10/29 10:57:30;;;;;;;41.60;37.90;;;;;;;15.76;100.00;99655.11;1941292;74;33748;-67
2021/10/29 11:14:35;;;;;;;42.93;39.37;;;;;;;15.83;100.00;99674.16;1941194;74;33115;-67
2021/10/29 11:20:00;;;;;;;44.10;40.37;;;;;;;15.64;100.00;99675.28;1941101;74;33071;-68
2021/10/29 11:25:56;;;;;;;48.30;44.70;;;;;;;15.48;100.00;99687.13;1941369;74;33643;-67
2021/10/29 11:31:26;;;;;;;45.43;42.07;;;;;;;15.03;100.00;99698.27;1941333;74;33562;-67
2021/10/29 11:36:54;;;;;;;44.40;40.57;;;;;;;15.06;100.00;99707.93;1941089;74;33076;-69
2021/10/29 11:42:20;;;;;;;46.40;42.90;;;;;;;15.32;100.00;99707.11;1941078;74;33067;-69
2021/10/29 11:47:54;;;;;;;42.87;39.27;;;;;;;15.32;100.00;99710.48;1941169;74;33096;-67
2021/10/29 11:53:20;;;;;;;44.30;40.80;;;;;;;15.42;100.00;99706.69;1941319;74;33153;-68
2021/10/29 11:58:51;;;;;;;44.13;40.27;;;;;;;15.29;100.00;99704.19;1941203;74;32996;-67
2021/10/29 12:09:56;;;;;;;44.33;41.03;;;;;;;15.31;100.00;99720.06;1941344;74;33609;-68
2021/10/29 12:15:25;;;;;;;45.40;41.83;;;;;;;15.32;100.00;99733.69;1941105;74;33123;-68
2021/10/29 12:20:51;;;;;;;45.27;41.97;;;;;;;14.91;100.00;99737.94;1941103;74;32992;-67
2021/10/29 12:26:22;;;;;;;45.90;42.70;;;;;;;14.46;100.00;99738.56;1941325;74;33057;-67
2021/10/29 12:32:30;;;;;;;46.10;42.70;;;;;;;14.55;100.00;99758.89;1941288;74;32995;-68
2021/10/29 12:38:04;;;;;;;42.47;39.47;;;;;;;14.63;100.00;99743.25;1941291;74;33515;-68
2021/10/29 13:06:45;;;;;;;43.97;41.20;;;;;;;14.85;100.00;99789.61;1941307;74;32980;-66
2021/10/29 13:12:16;;;;;;;41.60;39.10;;;;;;;14.88;100.00;99797.34;1941330;74;33466;-68
2021/10/29 13:17:45;;;;;;;39.03;36.73;;;;;;;14.82;100.00;99800.90;1941244;74;33130;-68
2021/10/29 13:29:10;;;;;;;46.00;42.80;;;;;;;14.38;100.00;99813.47;1941293;74;33570;-67
2021/10/29 13:34:47;;;;;;;44.47;41.40;;;;;;;14.43;100.00;99838.44;1941048;74;32998;-68
2021/10/29 13:51:23;;;;;;;42.47;39.57;;;;;;;14.57;100.00;99863.36;1941282;74;33494;-68
2021/10/29 13:57:04;;;;;;;44.30;41.23;;;;;;;14.53;100.00;99862.39;1941255;74;33557;-68
2021/10/29 14:31:09;;;;;;;39.47;37.17;;;;;;;14.94;100.00;99889.05;1941081;74;33071;-69
2021/10/29 14:36:43;;;;;;;37.20;35.00;;;;;;;15.01;100.00;99895.53;1941339;74;33070;-69
2021/10/29 14:42:13;;;;;;;39.97;37.57;;;;;;;14.72;100.00;99896.32;1941099;74;33054;-68
2021/10/29 14:47:44;;;;;;;40.83;38.50;;;;;;;14.71;100.00;99905.06;1941155;74;33051;-67
2021/10/29 14:53:23;;;;;;;41.50;39.00;;;;;;;14.85;100.00;99902.26;1941143;74;33060;-69
2021/10/29 15:04:40;;;;;;;38.63;36.33;;;;;;;14.69;100.00;99907.36;1941119;74;33175;-68
2021/10/29 15:16:01;;;;;;;39.33;37.03;;;;;;;14.81;100.00;99927.03;1941276;74;33429;-68
2021/10/29 15:27:18;;;;;;;41.50;38.90;;;;;;;14.67;100.00;99948.24;1941102;74;33002;-68
2021/10/29 15:44:09;;;;;;;39.40;36.97;;;;;;;14.62;100.00;99969.38;1941218;74;33024;-70
2021/10/29 15:49:38;;;;;;;38.03;35.80;;;;;;;14.47;100.00;99973.52;1941304;74;33610;-68
2021/10/29 15:55:10;;;;;;;39.87;37.37;;;;;;;14.34;100.00;99971.70;1941102;74;33046;-70
2021/10/29 16:00:44;;;;;;;46.13;43.43;;;;;;;14.19;100.00;99979.80;1941284;74;33493;-68
2021/10/29 16:17:28;;;;;;;47.87;45.23;;;;;;;13.91;100.00;99996.05;1941275;74;33007;-70
2021/10/29 16:22:55;;;;;;;40.37;37.97;;;;;;;13.71;100.00;99998.09;1941020;74;33094;-72
2021/10/29 16:28:20;;;;;;;43.20;40.80;;;;;;;13.65;100.00;100009.41;1941298;74;33503;-69
2021/10/29 16:33:44;;;;;;;50.43;47.50;;;;;;;13.52;100.00;100014.56;1941063;74;33157;-68
2021/10/29 16:39:28;;;;;;;48.83;45.73;;;;;;;13.38;100.00;100023.66;1991774;71;33256;-69
2021/10/29 16:44:54;;;;;;;49.77;46.77;;;;;;;13.37;100.00;100037.34;1941221;74;33090;-68
2021/10/29 16:50:21;;;;;;;46.50;43.57;;;;;;;13.31;100.00;100053.14;1941062;74;32983;-68
2021/10/29 16:55:46;;;;;;;47.37;44.30;;;;;;;13.16;100.00;100062.77;1941014;74;33147;-68
2021/10/29 17:01:12;;;;;;;51.90;48.23;;;;;;;13.14;100.00;100072.84;1925348;74;28283;-70
2021/10/29 17:06:37;;;;;;;53.30;49.63;;;;;;;13.08;100.00;100079.69;1941173;74;32962;-70
2021/10/29 17:12:22;;;;;;;53.53;49.70;;;;;;;12.35;100.00;100099.70;2002546;71;32883;-70
2021/10/29 17:17:47;;;;;;;49.80;46.20;;;;;;;12.31;100.00;100100.08;1941253;74;33488;-70
2021/10/29 17:23:13;;;;;;;47.30;43.80;;;;;;;12.16;100.00;100113.77;1940970;74;33098;-69
2021/10/29 17:28:37;;;;;;;47.77;44.27;;;;;;;12.00;100.00;100120.00;1941256;74;33073;-71
2021/10/29 17:34:02;;;;;;;48.83;45.23;;;;;;;11.95;100.00;100137.64;1941252;74;32998;-71
2021/10/29 17:39:27;;;;;;;47.70;44.20;;;;;;;11.77;100.00;100149.71;1941192;74;33520;-70
2021/10/29 17:44:51;;;;;;;47.50;44.00;;;;;;;11.55;100.00;100149.61;1941267;74;33603;-69
2021/10/29 17:50:17;;;;;;;46.60;43.00;;;;;;;11.89;100.00;100160.34;1941044;74;33075;-71
2021/10/29 17:55:48;;;;;;;45.70;42.27;;;;;;;12.05;100.00;100168.61;1941248;74;33525;-69
2021/10/29 18:01:12;;;;;;;44.80;41.13;;;;;;;11.94;100.00;100164.41;1941041;74;33064;-70
2021/10/29 18:06:36;;;;;;;45.83;42.37;;;;;;;11.92;100.00;100166.09;1941068;74;33102;-71
2021/10/29 18:12:01;;;;;;;45.13;41.93;;;;;;;12.04;100.00;100169.73;1941170;74;33043;-69
2021/10/29 18:17:25;;;;;;;46.10;42.57;;;;;;;11.82;100.00;100167.13;1941001;74;33007;-68
2021/10/29 18:22:49;;;;;;;47.27;43.67;;;;;;;11.66;100.00;100167.16;1940942;74;32987;-70
2021/10/29 18:28:15;;;;;;;46.87;43.30;;;;;;;11.54;100.00;100171.03;1941282;74;33508;-73
2021/10/29 18:33:39;;;;;;;48.70;45.10;;;;;;;11.58;100.00;100176.80;1941027;74;33049;-73
2021/10/29 18:39:05;;;;;;;48.43;44.63;;;;;;;11.32;100.00;100173.67;1941218;74;33559;-70
2021/10/29 18:44:29;;;;;;;49.50;45.80;;;;;;;11.18;100.00;100183.37;1941040;74;33070;-67
2021/10/29 18:49:53;;;;;;;47.40;43.73;;;;;;;10.85;100.00;100188.12;1941051;74;33082;-69
2021/10/29 18:55:17;;;;;;;45.90;42.40;;;;;;;10.71;100.00;100197.52;1941299;74;33498;-70
2021/10/29 19:00:42;;;;;;;46.00;42.47;;;;;;;10.54;100.00;100200.83;1941230;74;33554;-71
2021/10/29 19:06:08;;;;;;;45.10;41.67;;;;;;;10.53;100.00;100203.34;1941115;74;32974;-71
2021/10/29 19:11:38;;;;;;;46.20;42.67;;;;;;;10.73;100.00;100202.22;1941069;74;33092;-68
2021/10/29 19:16:58;;;;;;;48.20;44.23;;;;;;;10.85;100.00;100202.58;1941252;74;33082;-72
2021/10/29 19:22:22;;;;;;;46.07;42.30;;;;;;;10.57;100.00;100198.04;1941039;74;33007;-70
2021/10/29 19:27:46;;;;;;;45.43;41.80;;;;;;;10.76;100.00;100190.50;1941195;74;32992;-74
2021/10/29 19:33:14;;;;;;;48.07;44.13;;;;;;;10.81;100.00;100198.75;1941042;74;32998;-71
2021/10/29 19:38:38;;;;;;;48.13;44.40;;;;;;;10.94;100.00;100197.42;1941040;74;33061;-72
2021/10/29 19:44:22;;;;;;;47.23;43.60;;;;;;;10.81;100.00;100203.75;2009917;71;32822;-73
2021/10/29 19:49:46;;;;;;;48.57;44.60;;;;;;;10.87;100.00;100204.47;1941109;74;33089;-71
2021/10/29 19:55:10;;;;;;;48.53;44.80;;;;;;;10.98;100.00;100206.53;1941072;74;33184;-73
2021/10/29 20:00:35;;;;;;;49.57;45.47;;;;;;;10.66;100.00;100195.64;1941245;74;33482;-73
2021/10/29 20:06:02;;;;;;;46.13;42.33;;;;;;;10.70;100.00;100200.02;1941075;74;33536;-72
2021/10/29 20:11:26;;;;;;;46.80;42.80;;;;;;;10.86;100.00;100201.45;1941377;74;33508;-71
2021/10/29 20:17:11;;;;;;;46.33;42.53;;;;;;;10.78;100.00;100199.37;2007304;71;33459;-71
2021/10/29 20:22:36;;;;;;;45.10;40.83;;;;;;;11.22;100.00;100178.02;1941201;74;33541;-73
2021/10/29 20:28:02;;;;;;;46.10;42.27;;;;;;;11.30;100.00;100172.58;1941083;74;32995;-71
2021/10/29 20:33:27;;;;;;;48.37;44.53;;;;;;;11.26;100.00;100161.81;1941073;74;33149;-72
2021/10/29 20:38:51;;;;;;;48.37;44.07;;;;;;;10.74;100.00;100151.10;1941313;74;33038;-73
2021/10/29 20:44:16;;;;;;;47.83;43.73;;;;;;;10.88;100.00;100146.39;1941326;74;33592;-71
2021/10/29 20:49:41;;;;;;;46.13;42.43;;;;;;;10.49;100.00;100143.98;1941333;74;33006;-73
2021/10/29 20:55:08;;;;;;;49.13;44.93;;;;;;;10.34;100.00;100149.23;1941274;74;33062;-70
2021/10/29 21:00:32;;;;;;;49.67;45.53;;;;;;;10.59;100.00;100136.06;1941099;74;33139;-69
2021/10/29 21:05:57;;;;;;;49.53;45.23;;;;;;;10.49;100.00;100125.94;1941121;74;33045;-73
2021/10/29 21:11:22;;;;;;;49.57;45.37;;;;;;;10.23;100.00;100126.07;1941294;74;33604;-70
2021/10/29 21:16:46;;;;;;;49.03;45.07;;;;;;;10.00;100.00;100132.77;1941025;74;32988;-70
2021/10/29 21:22:11;;;;;;;46.73;42.93;;;;;;;10.30;100.00;100135.69;1941251;74;33123;-74
2021/10/29 21:27:35;;;;;;;46.10;42.17;;;;;;;10.44;100.00;100141.28;1941199;74;33567;-71
2021/10/29 21:32:59;;;;;;;45.00;41.17;;;;;;;10.36;100.00;100123.92;1941051;74;33002;-70
2021/10/29 21:38:23;;;;;;;48.13;43.33;;;;;;;10.41;100.00;100127.45;1941025;74;33063;-74
2021/10/29 21:43:47;;;;;;;45.90;41.87;;;;;;;10.53;100.00;100132.53;1941141;74;33006;-73
2021/10/29 21:49:13;;;;;;;45.67;41.50;;;;;;;10.93;100.00;100124.08;1941267;74;33579;-70
2021/10/29 21:54:38;;;;;;;46.97;43.27;;;;;;;10.73;100.00;100127.23;1941242;74;33568;-74
2021/10/29 22:00:02;;;;;;;45.63;42.03;;;;;;;10.80;100.00;100132.64;1941048;74;33009;-74
2021/10/29 22:05:27;;;;;;;45.80;41.93;;;;;;;10.59;100.00;100128.56;1941247;74;33533;-73
2021/10/29 22:10:52;;;;;;;47.57;43.77;;;;;;;10.49;100.00;100122.60;1941263;74;33620;-73
2021/10/29 22:16:17;;;;;;;46.13;42.50;;;;;;;10.37;100.00;100122.80;1941080;74;33008;-70
2021/10/29 22:21:42;;;;;;;48.07;44.23;;;;;;;10.42;100.00;100113.02;1941029;74;33511;-70
2021/10/29 22:27:12;;;;;;;46.20;42.23;;;;;;;10.00;100.00;100114.73;1941286;74;33568;-70
2021/10/29 22:32:36;;;;;;;49.37;45.13;;;;;;;9.96;100.00;100119.80;1941107;74;33109;-71
2021/10/29 22:38:02;;;;;;;46.77;42.87;;;;;;;9.97;100.00;100115.31;1941053;74;33077;-73
2021/10/29 22:43:28;;;;;;;47.20;43.50;;;;;;;9.96;100.00;100108.14;1941007;74;33083;-71
2021/10/29 22:48:54;;;;;;;44.80;41.30;;;;;;;9.83;100.00;100096.95;1941156;74;33144;-70
2021/10/29 22:54:19;;;;;;;45.43;41.87;;;;;;;9.85;100.00;100095.52;1941050;74;33116;-70
2021/10/29 22:59:50;;;;;;;46.00;42.30;;;;;;;10.08;100.00;100089.64;1941008;74;33025;-73
2021/10/29 23:05:18;;;;;;;44.57;40.93;;;;;;;10.03;100.00;100090.55;1941276;74;33166;-70
2021/10/29 23:10:42;;;;;;;44.53;41.03;;;;;;;9.92;100.00;100076.58;1941244;74;33162;-70
2021/10/29 23:16:06;;;;;;;45.20;41.30;;;;;;;10.33;100.00;100063.47;1941276;74;33161;-70
2021/10/29 23:21:36;;;;;;;45.70;42.17;;;;;;;10.05;100.00;100045.27;1940968;74;33117;-74
2021/10/29 23:27:01;;;;;;;43.33;40.03;;;;;;;10.00;100.00;100035.67;1941225;74;33578;-71
2021/10/29 23:32:25;;;;;;;45.17;41.50;;;;;;;9.97;100.00;100024.33;1941248;74;33591;-74
2021/10/29 23:37:50;;;;;;;45.87;42.53;;;;;;;9.97;100.00;100006.29;1941000;74;33012;-73
2021/10/29 23:43:14;;;;;;;45.30;41.93;;;;;;;9.68;100.00;100003.70;1941017;74;33013;-73
2021/10/29 23:48:39;;;;;;;44.97;41.73;;;;;;;9.88;100.00;99997.83;1940987;74;32990;-70
2021/10/29 23:54:03;;;;;;;44.20;41.10;;;;;;;9.82;100.00;99983.80;1941043;74;32996;-70
2021/10/29 23:59:27;;;;;;;44.63;41.53;;;;;;;10.20;100.00;99980.42;1941233;74;33124;-74
